sensor_id;sensor_type;location;lat;lon;timestamp;pressure;altitude;pressure_sealevel;temperature;humidity
10946;BME280;5525;42.648;23.368;2023-04-27T00:01:05;94369.44;;;8.03;95.20
10946;BME280;5525;42.648;23.368;2023-04-27T00:03:32;94363.75;;;7.96;94.30
10946;BME280;5525;42.648;23.368;2023-04-27T00:05:59;94345.84;;;7.83;94.17
10946;BME280;5525;42.648;23.368;2023-04-27T00:08:27;94355.22;;;7.85;94.28
10946;BME280;5525;42.648;23.368;2023-04-27T00:10:53;94360.56;;;7.77;94.33
10946;BME280;5525;42.648;23.368;2023-04-27T00:13:21;94362.16;;;7.78;94.31
10946;BME280;5525;42.648;23.368;2023-04-27T00:15:48;94368.47;;;7.73;94.51
10946;BME280;5525;42.648;23.368;2023-04-27T00:18:15;94367.19;;;7.71;95.18
10946;BME280;5525;42.648;23.368;2023-04-27T00:20:41;94366.69;;;7.69;95.27
10946;BME280;5525;42.648;23.368;2023-04-27T00:23:09;94370.31;;;7.64;96.25
10946;BME280;5525;42.648;23.368;2023-04-27T00:25:37;94369.34;;;7.52;94.47
10946;BME280;5525;42.648;23.368;2023-04-27T00:28:04;94367.63;;;7.56;95.31
10946;BME280;5525;42.648;23.368;2023-04-27T00:30:30;94365.38;;;7.49;96.18
10946;BME280;5525;42.648;23.368;2023-04-27T00:32:57;94376.13;;;7.49;95.84
10946;BME280;5525;42.648;23.368;2023-04-27T00:35:24;94375.19;;;7.45;96.12
10946;BME280;5525;42.648;23.368;2023-04-27T00:37:52;94370.06;;;7.35;97.83
10946;BME280;5525;42.648;23.368;2023-04-27T00:40:19;94373.56;;;7.36;97.06
10946;BME280;5525;42.648;23.368;2023-04-27T00:42:47;94378.59;;;7.29;97.37
10946;BME280;5525;42.648;23.368;2023-04-27T00:45:14;94384.72;;;7.21;97.30
10946;BME280;5525;42.648;23.368;2023-04-27T00:47:41;94375.03;;;7.11;98.44
10946;BME280;5525;42.648;23.368;2023-04-27T00:50:08;94380.22;;;7.08;99.45
10946;BME280;5525;42.648;23.368;2023-04-27T00:52:37;94375.00;;;7.03;99.19
10946;BME280;5525;42.648;23.368;2023-04-27T00:55:04;94382.06;;;6.99;100.00
10946;BME280;5525;42.648;23.368;2023-04-27T00:57:32;94382.88;;;6.99;98.70
10946;BME280;5525;42.648;23.368;2023-04-27T01:00:00;94379.66;;;6.88;99.66
10946;BME280;5525;42.648;23.368;2023-04-27T01:02:29;94397.75;;;6.83;100.00
10946;BME280;5525;42.648;23.368;2023-04-27T01:04:56;94396.00;;;6.78;100.00
10946;BME280;5525;42.648;23.368;2023-04-27T01:07:24;94395.66;;;6.71;100.00
10946;BME280;5525;42.648;23.368;2023-04-27T01:09:51;94396.13;;;6.73;100.00
10946;BME280;5525;42.648;23.368;2023-04-27T01:12:18;94391.19;;;6.67;100.00
10946;BME280;5525;42.648;23.368;2023-04-27T01:14:44;94400.81;;;6.68;100.00
10946;BME280;5525;42.648;23.368;2023-04-27T01:17:13;94394.50;;;6.64;100.00
10946;BME280;5525;42.648;23.368;2023-04-27T01:19:39;94398.72;;;6.56;100.00
10946;BME280;5525;42.648;23.368;2023-04-27T01:22:06;94405.66;;;6.57;100.00
10946;BME280;5525;42.648;23.368;2023-04-27T01:24:35;94404.38;;;6.55;100.00
10946;BME280;5525;42.648;23.368;2023-04-27T01:27:02;94401.00;;;6.49;100.00
10946;BME280;5525;42.648;23.368;2023-04-27T01:29:29;94401.63;;;6.46;100.00
10946;BME280;5525;42.648;23.368;2023-04-27T01:31:55;94400.66;;;6.42;100.00
10946;BME280;5525;42.648;23.368;2023-04-27T01:34:22;94399.97;;;6.37;100.00
10946;BME280;5525;42.648;23.368;2023-04-27T01:36:49;94404.53;;;6.36;100.00
10946;BME280;5525;42.648;23.368;2023-04-27T01:39:16;94399.19;;;6.36;100.00
10946;BME280;5525;42.648;23.368;2023-04-27T01:41:44;94365.53;;;6.08;100.00
10946;BME280;5525;42.648;23.368;2023-04-27T01:44:10;94417.25;;;6.31;100.00
10946;BME280;5525;42.648;23.368;2023-04-27T01:46:37;94411.13;;;6.30;100.00
10946;BME280;5525;42.648;23.368;2023-04-27T01:49:04;94413.31;;;6.28;100.00
10946;BME280;5525;42.648;23.368;2023-04-27T01:51:31;94405.25;;;6.28;100.00
10946;BME280;5525;42.648;23.368;2023-04-27T01:53:58;94412.19;;;6.29;100.00
10946;BME280;5525;42.648;23.368;2023-04-27T01:56:25;94413.97;;;6.34;100.00
10946;BME280;5525;42.648;23.368;2023-04-27T01:58:53;94411.22;;;6.25;100.00
10946;BME280;5525;42.648;23.368;2023-04-27T02:01:20;94408.84;;;6.24;100.00
10946;BME280;5525;42.648;23.368;2023-04-27T02:03:47;94412.91;;;6.21;100.00
10946;BME280;5525;42.648;23.368;2023-04-27T02:06:13;94409.25;;;6.17;100.00
10946;BME280;5525;42.648;23.368;2023-04-27T02:08:40;94409.94;;;6.23;100.00
10946;BME280;5525;42.648;23.368;2023-04-27T02:11:07;94422.72;;;6.26;100.00
10946;BME280;5525;42.648;23.368;2023-04-27T02:13:34;94414.31;;;6.19;100.00
10946;BME280;5525;42.648;23.368;2023-04-27T02:16:02;94417.81;;;6.19;100.00
10946;BME280;5525;42.648;23.368;2023-04-27T02:18:29;94407.56;;;6.21;100.00
10946;BME280;5525;42.648;23.368;2023-04-27T02:20:56;94415.91;;;6.20;100.00
10946;BME280;5525;42.648;23.368;2023-04-27T02:23:23;94418.41;;;6.16;100.00
10946;BME280;5525;42.648;23.368;2023-04-27T02:25:50;94421.69;;;6.13;100.00
10946;BME280;5525;42.648;23.368;2023-04-27T02:28:16;94417.41;;;6.12;100.00
10946;BME280;5525;42.648;23.368;2023-04-27T02:30:43;94418.81;;;6.10;100.00
10946;BME280;5525;42.648;23.368;2023-04-27T02:33:11;94415.03;;;6.11;100.00
10946;BME280;5525;42.648;23.368;2023-04-27T02:35:38;94417.41;;;6.12;100.00
10946;BME280;5525;42.648;23.368;2023-04-27T02:38:05;94420.22;;;6.07;100.00
10946;BME280;5525;42.648;23.368;2023-04-27T02:40:32;94413.84;;;6.03;100.00
10946;BME280;5525;42.648;23.368;2023-04-27T02:42:59;94422.00;;;5.98;100.00
10946;BME280;5525;42.648;23.368;2023-04-27T02:45:25;94421.19;;;6.11;100.00
10946;BME280;5525;42.648;23.368;2023-04-27T02:47:52;94425.16;;;6.14;100.00
10946;BME280;5525;42.648;23.368;2023-04-27T02:50:20;94426.34;;;6.08;100.00
10946;BME280;5525;42.648;23.368;2023-04-27T02:52:47;94424.97;;;6.10;100.00
10946;BME280;5525;42.648;23.368;2023-04-27T02:55:14;94422.47;;;6.14;100.00
10946;BME280;5525;42.648;23.368;2023-04-27T02:57:40;94413.81;;;6.17;100.00
10946;BME280;5525;42.648;23.368;2023-04-27T03:00:08;94427.06;;;6.13;100.00
10946;BME280;5525;42.648;23.368;2023-04-27T03:02:35;94431.91;;;6.11;100.00
10946;BME280;5525;42.648;23.368;2023-04-27T03:05:02;94432.22;;;6.10;100.00
10946;BME280;5525;42.648;23.368;2023-04-27T03:07:31;94431.41;;;6.09;100.00
10946;BME280;5525;42.648;23.368;2023-04-27T03:09:57;94434.69;;;6.06;100.00
10946;BME280;5525;42.648;23.368;2023-04-27T03:12:24;94427.06;;;6.13;100.00
10946;BME280;5525;42.648;23.368;2023-04-27T03:14:51;94437.88;;;6.08;100.00
10946;BME280;5525;42.648;23.368;2023-04-27T03:17:18;94442.94;;;6.10;100.00
10946;BME280;5525;42.648;23.368;2023-04-27T03:19:46;94449.50;;;6.04;100.00
10946;BME280;5525;42.648;23.368;2023-04-27T03:22:12;94447.50;;;6.09;100.00
10946;BME280;5525;42.648;23.368;2023-04-27T03:24:40;94438.19;;;6.07;100.00
10946;BME280;5525;42.648;23.368;2023-04-27T03:27:07;94449.19;;;6.05;100.00
10946;BME280;5525;42.648;23.368;2023-04-27T03:29:34;94459.03;;;6.10;100.00
10946;BME280;5525;42.648;23.368;2023-04-27T03:32:01;94460.53;;;6.02;100.00
10946;BME280;5525;42.648;23.368;2023-04-27T03:34:28;94452.47;;;6.02;99.66
10946;BME280;5525;42.648;23.368;2023-04-27T03:36:55;94459.63;;;6.07;99.99
10946;BME280;5525;42.648;23.368;2023-04-27T03:39:22;94460.53;;;6.02;99.45
10946;BME280;5525;42.648;23.368;2023-04-27T03:41:50;94464.19;;;6.06;100.00
10946;BME280;5525;42.648;23.368;2023-04-27T03:44:17;94463.91;;;5.94;100.00
10946;BME280;5525;42.648;23.368;2023-04-27T03:46:43;94464.69;;;5.95;100.00
10946;BME280;5525;42.648;23.368;2023-04-27T03:49:10;94471.34;;;5.97;100.00
10946;BME280;5525;42.648;23.368;2023-04-27T03:51:37;94463.91;;;5.94;100.00
10946;BME280;5525;42.648;23.368;2023-04-27T03:54:06;94473.72;;;5.99;100.00
10946;BME280;5525;42.648;23.368;2023-04-27T03:56:34;94471.84;;;5.99;100.00
10946;BME280;5525;42.648;23.368;2023-04-27T03:59:02;94466.19;;;6.01;100.00
10946;BME280;5525;42.648;23.368;2023-04-27T04:01:29;94477.28;;;6.08;100.00
10946;BME280;5525;42.648;23.368;2023-04-27T04:03:58;94487.09;;;6.12;100.00
10946;BME280;5525;42.648;23.368;2023-04-27T04:06:24;94482.25;;;6.14;97.32
10946;BME280;5525;42.648;23.368;2023-04-27T04:08:52;94487.50;;;6.19;98.14
10946;BME280;5525;42.648;23.368;2023-04-27T04:11:19;94489.75;;;6.26;96.52
10946;BME280;5525;42.648;23.368;2023-04-27T04:13:45;94497.91;;;6.34;97.40
10946;BME280;5525;42.648;23.368;2023-04-27T04:16:14;94495.31;;;6.29;97.37
10946;BME280;5525;42.648;23.368;2023-04-27T04:18:40;94506.91;;;6.38;96.70
10946;BME280;5525;42.648;23.368;2023-04-27T04:21:08;94509.84;;;6.50;94.85
10946;BME280;5525;42.648;23.368;2023-04-27T04:23:35;94516.31;;;6.49;92.99
10946;BME280;5525;42.648;23.368;2023-04-27T04:26:02;94512.25;;;6.52;92.37
10946;BME280;5525;42.648;23.368;2023-04-27T04:28:29;94515.31;;;6.59;93.14
10946;BME280;5525;42.648;23.368;2023-04-27T04:30:56;94513.41;;;6.73;91.91
10946;BME280;5525;42.648;23.368;2023-04-27T04:33:24;94521.41;;;6.86;92.65
10946;BME280;5525;42.648;23.368;2023-04-27T04:35:51;94530.31;;;6.96;88.79
10946;BME280;5525;42.648;23.368;2023-04-27T04:38:19;94523.00;;;7.10;89.31
10946;BME280;5525;42.648;23.368;2023-04-27T04:40:45;94520.91;;;7.29;87.89
10946;BME280;5525;42.648;23.368;2023-04-27T04:43:12;94526.03;;;7.17;86.80
10946;BME280;5525;42.648;23.368;2023-04-27T04:45:39;94526.53;;;7.19;85.58
10946;BME280;5525;42.648;23.368;2023-04-27T04:48:06;94528.78;;;7.25;84.61
10946;BME280;5525;42.648;23.368;2023-04-27T04:50:34;94532.13;;;7.31;85.14
10946;BME280;5525;42.648;23.368;2023-04-27T04:53:01;94530.97;;;8.15;81.11
10946;BME280;5525;42.648;23.368;2023-04-27T04:55:28;94524.94;;;8.57;75.39
10946;BME280;5525;42.648;23.368;2023-04-27T04:57:54;94538.44;;;9.97;71.63
10946;BME280;5525;42.648;23.368;2023-04-27T05:00:21;94536.47;;;11.02;64.11
10946;BME280;5525;42.648;23.368;2023-04-27T05:02:48;94543.13;;;12.11;59.21
10946;BME280;5525;42.648;23.368;2023-04-27T05:05:15;94540.34;;;12.55;54.75
10946;BME280;5525;42.648;23.368;2023-04-27T05:07:43;94546.09;;;12.90;53.54
10946;BME280;5525;42.648;23.368;2023-04-27T05:10:09;94544.75;;;11.79;54.43
10946;BME280;5525;42.648;23.368;2023-04-27T05:12:36;94551.41;;;13.78;51.06
10946;BME280;5525;42.648;23.368;2023-04-27T05:15:04;94543.84;;;14.92;46.52
10946;BME280;5525;42.648;23.368;2023-04-27T05:17:31;94543.03;;;12.19;50.70
10946;BME280;5525;42.648;23.368;2023-04-27T05:19:57;94554.19;;;12.18;52.18
10946;BME280;5525;42.648;23.368;2023-04-27T05:22:24;94549.19;;;11.96;53.43
10946;BME280;5525;42.648;23.368;2023-04-27T05:24:52;94557.13;;;12.97;50.85
10946;BME280;5525;42.648;23.368;2023-04-27T05:27:19;94557.75;;;10.54;54.94
10946;BME280;5525;42.648;23.368;2023-04-27T05:29:46;94556.28;;;9.81;58.65
10946;BME280;5525;42.648;23.368;2023-04-27T05:32:13;94575.34;;;9.25;62.76
10946;BME280;5525;42.648;23.368;2023-04-27T05:34:40;94568.56;;;8.37;68.06
10946;BME280;5525;42.648;23.368;2023-04-27T05:37:08;94564.03;;;8.63;69.08
10946;BME280;5525;42.648;23.368;2023-04-27T05:39:35;94570.41;;;8.67;69.57
10946;BME280;5525;42.648;23.368;2023-04-27T05:42:03;94572.69;;;8.34;69.74
10946;BME280;5525;42.648;23.368;2023-04-27T05:44:30;94581.72;;;8.08;73.02
10946;BME280;5525;42.648;23.368;2023-04-27T05:46:56;94580.28;;;8.02;73.71
10946;BME280;5525;42.648;23.368;2023-04-27T05:49:23;94575.22;;;8.09;73.24
10946;BME280;5525;42.648;23.368;2023-04-27T05:51:50;94579.16;;;8.03;73.98
10946;BME280;5525;42.648;23.368;2023-04-27T05:54:17;94570.56;;;7.92;75.61
10946;BME280;5525;42.648;23.368;2023-04-27T05:56:44;94570.88;;;7.91;75.56
10946;BME280;5525;42.648;23.368;2023-04-27T05:59:12;94574.78;;;7.76;77.53
10946;BME280;5525;42.648;23.368;2023-04-27T06:01:39;94580.63;;;7.78;77.53
10946;BME280;5525;42.648;23.368;2023-04-27T06:04:06;94575.25;;;7.78;78.92
10946;BME280;5525;42.648;23.368;2023-04-27T06:06:33;94574.94;;;7.80;78.94
10946;BME280;5525;42.648;23.368;2023-04-27T06:09:00;94574.06;;;7.93;78.60
10946;BME280;5525;42.648;23.368;2023-04-27T06:11:26;94574.00;;;8.15;77.50
10946;BME280;5525;42.648;23.368;2023-04-27T06:13:53;94576.47;;;8.03;77.19
10946;BME280;5525;42.648;23.368;2023-04-27T06:16:22;94589.78;;;8.08;77.57
10946;BME280;5525;42.648;23.368;2023-04-27T06:18:48;94579.47;;;8.32;77.98
10946;BME280;5525;42.648;23.368;2023-04-27T06:21:15;94591.88;;;8.50;77.83
10946;BME280;5525;42.648;23.368;2023-04-27T06:23:42;94584.94;;;8.57;76.77
10946;BME280;5525;42.648;23.368;2023-04-27T06:26:09;94571.88;;;8.25;76.94
10946;BME280;5525;42.648;23.368;2023-04-27T06:28:35;94576.00;;;8.40;76.32
10946;BME280;5525;42.648;23.368;2023-04-27T06:31:02;94583.38;;;8.65;73.55
10946;BME280;5525;42.648;23.368;2023-04-27T06:33:31;94577.56;;;8.89;73.20
10946;BME280;5525;42.648;23.368;2023-04-27T06:35:57;94578.66;;;8.79;74.64
10946;BME280;5525;42.648;23.368;2023-04-27T06:38:26;94575.22;;;9.30;74.09
10946;BME280;5525;42.648;23.368;2023-04-27T06:40:52;94568.19;;;9.63;71.23
10946;BME280;5525;42.648;23.368;2023-04-27T06:43:19;94573.50;;;9.97;70.00
10946;BME280;5525;42.648;23.368;2023-04-27T06:45:46;94581.16;;;9.86;70.08
10946;BME280;5525;42.648;23.368;2023-04-27T06:48:12;94574.03;;;9.82;70.16
10946;BME280;5525;42.648;23.368;2023-04-27T06:50:40;94575.72;;;10.12;66.46
10946;BME280;5525;42.648;23.368;2023-04-27T06:53:07;94574.50;;;10.39;65.95
10946;BME280;5525;42.648;23.368;2023-04-27T06:55:34;94579.34;;;10.83;64.58
10946;BME280;5525;42.648;23.368;2023-04-27T06:58:01;94566.22;;;10.44;64.19
10946;BME280;5525;42.648;23.368;2023-04-27T07:00:28;94573.34;;;10.77;62.57
10946;BME280;5525;42.648;23.368;2023-04-27T07:02:55;94570.69;;;11.39;61.73
10946;BME280;5525;42.648;23.368;2023-04-27T07:05:22;94571.91;;;11.82;58.67
10946;BME280;5525;42.648;23.368;2023-04-27T07:07:50;94565.16;;;12.81;55.07
10946;BME280;5525;42.648;23.368;2023-04-27T07:10:17;94567.66;;;13.50;53.49
10946;BME280;5525;42.648;23.368;2023-04-27T07:12:45;94562.31;;;15.52;48.69
10946;BME280;5525;42.648;23.368;2023-04-27T07:15:12;94559.69;;;17.03;42.83
10946;BME280;5525;42.648;23.368;2023-04-27T07:17:39;94565.72;;;17.42;42.11
10946;BME280;5525;42.648;23.368;2023-04-27T07:20:07;94552.81;;;18.34;38.44
10946;BME280;5525;42.648;23.368;2023-04-27T07:22:34;94571.00;;;17.83;38.66
10946;BME280;5525;42.648;23.368;2023-04-27T07:25:02;94558.06;;;18.47;37.99
10946;BME280;5525;42.648;23.368;2023-04-27T07:27:29;94560.38;;;18.11;36.41
10946;BME280;5525;42.648;23.368;2023-04-27T07:29:57;94554.34;;;16.20;39.29
10946;BME280;5525;42.648;23.368;2023-04-27T07:32:24;94563.03;;;14.21;42.98
10946;BME280;5525;42.648;23.368;2023-04-27T07:34:51;94562.28;;;14.36;43.60
10946;BME280;5525;42.648;23.368;2023-04-27T07:37:17;94575.03;;;13.77;45.37
10946;BME280;5525;42.648;23.368;2023-04-27T07:39:44;94561.22;;;13.98;45.70
10946;BME280;5525;42.648;23.368;2023-04-27T07:42:13;94563.94;;;14.87;44.69
10946;BME280;5525;42.648;23.368;2023-04-27T07:44:40;94562.75;;;14.54;44.13
10946;BME280;5525;42.648;23.368;2023-04-27T07:47:07;94568.84;;;14.97;42.63
10946;BME280;5525;42.648;23.368;2023-04-27T07:49:35;94564.84;;;14.60;41.62
10946;BME280;5525;42.648;23.368;2023-04-27T07:52:01;94565.78;;;14.37;42.28
10946;BME280;5525;42.648;23.368;2023-04-27T07:54:28;94553.94;;;14.91;41.40
10946;BME280;5525;42.648;23.368;2023-04-27T07:56:55;94568.34;;;14.30;41.37
10946;BME280;5525;42.648;23.368;2023-04-27T07:59:23;94565.88;;;13.42;43.10
10946;BME280;5525;42.648;23.368;2023-04-27T08:01:50;94570.69;;;13.48;43.66
10946;BME280;5525;42.648;23.368;2023-04-27T08:04:17;94568.56;;;13.82;43.69
10946;BME280;5525;42.648;23.368;2023-04-27T08:06:43;94567.63;;;15.64;40.76
10946;BME280;5525;42.648;23.368;2023-04-27T08:09:10;94552.13;;;19.28;34.09
10946;BME280;5525;42.648;23.368;2023-04-27T08:11:37;94559.78;;;20.77;31.26
10946;BME280;5525;42.648;23.368;2023-04-27T08:14:04;94556.75;;;23.10;28.13
10946;BME280;5525;42.648;23.368;2023-04-27T08:16:34;94560.81;;;23.80;26.62
10946;BME280;5525;42.648;23.368;2023-04-27T08:19:01;94566.00;;;20.39;29.13
10946;BME280;5525;42.648;23.368;2023-04-27T08:21:27;94557.31;;;22.88;27.18
10946;BME280;5525;42.648;23.368;2023-04-27T08:23:54;94559.47;;;22.56;27.56
10946;BME280;5525;42.648;23.368;2023-04-27T08:26:21;94566.09;;;21.44;28.82
10946;BME280;5525;42.648;23.368;2023-04-27T08:28:48;94565.34;;;19.23;31.31
10946;BME280;5525;42.648;23.368;2023-04-27T08:31:14;94562.31;;;18.44;31.71
10946;BME280;5525;42.648;23.368;2023-04-27T08:33:42;94558.47;;;15.91;34.87
10946;BME280;5525;42.648;23.368;2023-04-27T08:36:09;94563.81;;;16.07;35.90
10946;BME280;5525;42.648;23.368;2023-04-27T08:38:36;94565.63;;;15.80;35.69
10946;BME280;5525;42.648;23.368;2023-04-27T08:41:02;94561.09;;;15.69;37.73
10946;BME280;5525;42.648;23.368;2023-04-27T08:43:33;94555.44;;;14.42;39.89
10946;BME280;5525;42.648;23.368;2023-04-27T08:46:01;94551.81;;;14.23;41.17
10946;BME280;5525;42.648;23.368;2023-04-27T08:48:28;94565.72;;;14.64;41.34
10946;BME280;5525;42.648;23.368;2023-04-27T08:50:58;94566.94;;;14.67;39.74
10946;BME280;5525;42.648;23.368;2023-04-27T08:53:27;94571.06;;;14.30;40.88
10946;BME280;5525;42.648;23.368;2023-04-27T08:55:54;94563.38;;;13.49;42.41
10946;BME280;5525;42.648;23.368;2023-04-27T08:58:22;94565.63;;;13.47;42.95
10946;BME280;5525;42.648;23.368;2023-04-27T09:01:04;94567.41;;;13.83;43.46
10946;BME280;5525;42.648;23.368;2023-04-27T09:03:31;94564.50;;;14.77;42.14
10946;BME280;5525;42.648;23.368;2023-04-27T09:06:00;94561.44;;;14.63;41.72
10946;BME280;5525;42.648;23.368;2023-04-27T09:08:27;94561.78;;;13.48;43.34
10946;BME280;5525;42.648;23.368;2023-04-27T09:10:54;94567.78;;;13.41;44.28
10946;BME280;5525;42.648;23.368;2023-04-27T09:13:21;94565.22;;;13.73;42.85
10946;BME280;5525;42.648;23.368;2023-04-27T09:15:49;94560.75;;;13.80;42.54
10946;BME280;5525;42.648;23.368;2023-04-27T09:18:18;94558.22;;;13.59;43.45
10946;BME280;5525;42.648;23.368;2023-04-27T09:20:46;94558.88;;;13.69;43.78
10946;BME280;5525;42.648;23.368;2023-04-27T09:23:26;94552.69;;;17.06;37.94
10946;BME280;5525;42.648;23.368;2023-04-27T09:25:53;94547.75;;;17.67;36.83
10946;BME280;5525;42.648;23.368;2023-04-27T09:28:21;94556.06;;;16.73;36.60
10946;BME280;5525;42.648;23.368;2023-04-27T09:30:51;94532.34;;;18.51;34.10
10946;BME280;5525;42.648;23.368;2023-04-27T09:33:23;94531.22;;;20.95;31.65
10946;BME280;5525;42.648;23.368;2023-04-27T09:35:51;94533.09;;;18.95;33.63
10946;BME280;5525;42.648;23.368;2023-04-27T09:38:19;94544.03;;;16.74;35.78
10946;BME280;5525;42.648;23.368;2023-04-27T09:40:48;94537.53;;;15.38;37.46
10946;BME280;5525;42.648;23.368;2023-04-27T09:43:15;94528.84;;;14.98;39.09
10946;BME280;5525;42.648;23.368;2023-04-27T09:45:42;94516.50;;;15.00;39.19
10946;BME280;5525;42.648;23.368;2023-04-27T09:48:10;94524.25;;;14.36;40.40
10946;BME280;5525;42.648;23.368;2023-04-27T09:50:39;94522.69;;;14.51;40.92
10946;BME280;5525;42.648;23.368;2023-04-27T09:53:07;94526.16;;;14.67;39.82
10946;BME280;5525;42.648;23.368;2023-04-27T09:55:38;94521.19;;;16.82;37.18
10946;BME280;5525;42.648;23.368;2023-04-27T09:58:33;94512.78;;;22.31;29.68
10946;BME280;5525;42.648;23.368;2023-04-27T10:01:09;94504.81;;;22.58;27.95
10946;BME280;5525;42.648;23.368;2023-04-27T10:03:47;94504.84;;;20.17;30.08
10946;BME280;5525;42.648;23.368;2023-04-27T10:06:49;94511.44;;;20.13;30.09
10946;BME280;5525;42.648;23.368;2023-04-27T10:09:19;94517.44;;;20.53;29.88
10946;BME280;5525;42.648;23.368;2023-04-27T10:11:49;94506.81;;;19.38;30.00
10946;BME280;5525;42.648;23.368;2023-04-27T10:14:19;94512.75;;;18.96;31.54
10946;BME280;5525;42.648;23.368;2023-04-27T10:16:51;94514.78;;;16.97;33.55
10946;BME280;5525;42.648;23.368;2023-04-27T10:19:19;94519.13;;;15.51;36.26
10946;BME280;5525;42.648;23.368;2023-04-27T10:21:53;94526.25;;;14.70;37.64
10946;BME280;5525;42.648;23.368;2023-04-27T10:24:33;94515.63;;;14.81;38.34
10946;BME280;5525;42.648;23.368;2023-04-27T10:27:02;94497.84;;;15.37;37.34
10946;BME280;5525;42.648;23.368;2023-04-27T10:29:39;94515.22;;;16.31;35.90
10946;BME280;5525;42.648;23.368;2023-04-27T10:32:08;94506.72;;;18.70;32.58
10946;BME280;5525;42.648;23.368;2023-04-27T10:34:35;94509.69;;;19.01;31.86
10946;BME280;5525;42.648;23.368;2023-04-27T10:37:07;94512.72;;;17.17;33.53
10946;BME280;5525;42.648;23.368;2023-04-27T10:39:35;94514.53;;;15.93;35.35
10946;BME280;5525;42.648;23.368;2023-04-27T10:42:03;94522.22;;;15.14;35.80
10946;BME280;5525;42.648;23.368;2023-04-27T10:44:32;94517.22;;;17.91;33.66
10946;BME280;5525;42.648;23.368;2023-04-27T10:47:11;94503.91;;;22.03;27.91
10946;BME280;5525;42.648;23.368;2023-04-27T10:49:38;94503.75;;;21.20;28.01
10946;BME280;5525;42.648;23.368;2023-04-27T10:52:08;94498.00;;;19.11;30.20
10946;BME280;5525;42.648;23.368;2023-04-27T10:54:35;94501.13;;;17.23;32.13
10946;BME280;5525;42.648;23.368;2023-04-27T10:57:04;94510.78;;;17.76;32.37
10946;BME280;5525;42.648;23.368;2023-04-27T10:59:32;94523.31;;;17.48;31.94
10946;BME280;5525;42.648;23.368;2023-04-27T11:02:00;94510.38;;;15.61;34.66
10946;BME280;5525;42.648;23.368;2023-04-27T11:04:35;94507.97;;;15.21;35.81
10946;BME280;5525;42.648;23.368;2023-04-27T11:07:04;94503.53;;;17.54;33.76
10946;BME280;5525;42.648;23.368;2023-04-27T11:09:33;94491.44;;;18.28;30.80
10946;BME280;5525;42.648;23.368;2023-04-27T11:12:00;94495.72;;;17.56;32.86
10946;BME280;5525;42.648;23.368;2023-04-27T11:14:28;94509.72;;;16.99;32.89
10946;BME280;5525;42.648;23.368;2023-04-27T11:16:54;94505.88;;;15.49;34.07
10946;BME280;5525;42.648;23.368;2023-04-27T11:19:23;94496.53;;;15.12;34.70
10946;BME280;5525;42.648;23.368;2023-04-27T11:21:50;94502.28;;;14.91;35.62
10946;BME280;5525;42.648;23.368;2023-04-27T11:24:16;94505.84;;;15.30;35.39
10946;BME280;5525;42.648;23.368;2023-04-27T11:26:50;94504.63;;;15.27;35.89
10946;BME280;5525;42.648;23.368;2023-04-27T11:29:17;94508.16;;;14.93;36.26
10946;BME280;5525;42.648;23.368;2023-04-27T11:31:45;94501.31;;;14.49;36.88
10946;BME280;5525;42.648;23.368;2023-04-27T11:34:16;94513.94;;;14.26;37.30
10946;BME280;5525;42.648;23.368;2023-04-27T11:36:55;94515.25;;;13.89;38.22
10946;BME280;5525;42.648;23.368;2023-04-27T11:39:22;94511.91;;;14.39;37.94
10946;BME280;5525;42.648;23.368;2023-04-27T11:41:48;94507.00;;;14.29;37.86
10946;BME280;5525;42.648;23.368;2023-04-27T11:44:15;94502.28;;;15.26;37.14
10946;BME280;5525;42.648;23.368;2023-04-27T11:46:43;94513.47;;;16.20;36.08
10946;BME280;5525;42.648;23.368;2023-04-27T11:49:11;94508.81;;;15.60;35.49
10946;BME280;5525;42.648;23.368;2023-04-27T11:51:39;94510.66;;;15.37;36.04
10946;BME280;5525;42.648;23.368;2023-04-27T11:54:10;94504.88;;;15.38;36.61
10946;BME280;5525;42.648;23.368;2023-04-27T11:56:39;94511.75;;;14.97;36.62
10946;BME280;5525;42.648;23.368;2023-04-27T11:59:17;94511.81;;;14.51;37.12
10946;BME280;5525;42.648;23.368;2023-04-27T12:01:45;94512.13;;;14.80;37.70
10946;BME280;5525;42.648;23.368;2023-04-27T12:04:12;94525.22;;;14.44;37.91
10946;BME280;5525;42.648;23.368;2023-04-27T12:06:39;94520.28;;;14.80;37.00
10946;BME280;5525;42.648;23.368;2023-04-27T12:09:06;94528.03;;;14.47;37.13
10946;BME280;5525;42.648;23.368;2023-04-27T12:11:34;94530.28;;;14.76;37.55
10946;BME280;5525;42.648;23.368;2023-04-27T12:14:01;94528.13;;;14.35;38.19
10946;BME280;5525;42.648;23.368;2023-04-27T12:16:28;94525.13;;;13.82;38.84
10946;BME280;5525;42.648;23.368;2023-04-27T12:18:55;94530.69;;;13.57;39.41
10946;BME280;5525;42.648;23.368;2023-04-27T12:21:22;94537.34;;;13.60;39.27
10946;BME280;5525;42.648;23.368;2023-04-27T12:23:49;94537.00;;;13.62;38.97
10946;BME280;5525;42.648;23.368;2023-04-27T12:26:15;94531.03;;;13.56;39.61
10946;BME280;5525;42.648;23.368;2023-04-27T12:28:44;94532.53;;;13.69;39.19
10946;BME280;5525;42.648;23.368;2023-04-27T12:31:14;94531.69;;;14.24;39.18
10946;BME280;5525;42.648;23.368;2023-04-27T12:33:40;94528.22;;;14.39;38.31
10946;BME280;5525;42.648;23.368;2023-04-27T12:36:07;94528.38;;;14.30;38.33
10946;BME280;5525;42.648;23.368;2023-04-27T12:38:34;94530.88;;;14.08;39.15
10946;BME280;5525;42.648;23.368;2023-04-27T12:41:01;94518.66;;;14.29;38.39
10946;BME280;5525;42.648;23.368;2023-04-27T12:43:28;94531.50;;;14.17;38.57
10946;BME280;5525;42.648;23.368;2023-04-27T12:45:56;94539.53;;;14.25;38.98
10946;BME280;5525;42.648;23.368;2023-04-27T12:48:23;94532.88;;;14.11;38.83
10946;BME280;5525;42.648;23.368;2023-04-27T12:50:50;94536.63;;;14.34;38.73
10946;BME280;5525;42.648;23.368;2023-04-27T12:53:17;94533.34;;;14.13;38.44
10946;BME280;5525;42.648;23.368;2023-04-27T12:55:44;94528.84;;;14.05;39.21
10946;BME280;5525;42.648;23.368;2023-04-27T12:58:13;94526.13;;;13.89;39.79
10946;BME280;5525;42.648;23.368;2023-04-27T13:00:40;94529.53;;;13.86;39.07
10946;BME280;5525;42.648;23.368;2023-04-27T13:03:09;94526.25;;;14.24;39.28
10946;BME280;5525;42.648;23.368;2023-04-27T13:05:35;94528.13;;;14.35;39.62